KSBD/SBD METAR and TAF weather

Enter ICAO airport designator
Station Type Date Time Source
KSBD METAR 2021/01/16 02:59 UTC NOAA

KSBD 160259Z 00000KT 10SM SKC 20/M05 A3008


Station Type Date Time Source
KSBD Decoded METAR 2021/01/16 02:59 UTC NOAA

Norton Air Force Base / San Bern, CA, United States (KSBD) 34-06N 117-14W
Jan 15, 2021 - 09:59 PM EST / 2021.01.16 0259 UTC
Wind: Calm:0
Visibility: 10 mile(s):0
Sky conditions: clear
Temperature: 68 F (20 C)
Dew Point: 23 F (-5 C)
Relative Humidity: 18%
Pressure (altimeter): 30.08 in. Hg (1018 hPa)
ob: KSBD 160259Z 00000KT 10SM SKC 20/M05 A3008
cycle: 3

Station Type Date Time Source
KSBD TAF 2021/01/15 18:42 UTC NOAA

TAF KSBD 151741Z 1518/1618 VRB05KT P6SM FEW250

Example: see airport list